Time;durP1;ratioP1;P1;durP2;ratioP2;P2;SDS_P1;SDS_P2;PMS_P1;PMS_P2;Temp;Humidity;BMP_temperature;BMP_pressure;BME280_temperature;BME280_humidity;BME280_pressure;Samples;Min_cycle;Max_cycle;Signal;HPM_P1;HPM_P2
2022/03/12 05:01:08;;;;;;;12.17;7.50;;;4.50;69.00;;;;;;5645765;23;20266;-72
2022/03/12 05:03:37;;;;;;;12.57;7.17;;;4.50;68.70;;;;;;4956916;28;20857;-72
2022/03/12 05:06:05;;;;;;;13.57;7.87;;;4.50;68.60;;;;;;4956806;28;20509;-72
2022/03/12 05:08:36;;;;;;;10.03;7.70;;;4.50;68.80;;;;;;4956542;28;20450;-72
2022/03/12 05:11:04;;;;;;;11.67;7.53;;;4.50;68.90;;;;;;4956612;28;20521;-72
2022/03/12 05:13:31;;;;;;;10.60;7.27;;;4.50;68.60;;;;;;4956437;28;20458;-73
2022/03/12 05:16:03;;;;;;;11.83;7.30;;;4.50;69.00;;;;;;4993763;23;20532;-78
2022/03/12 05:18:32;;;;;;;11.17;7.70;;;4.50;69.20;;;;;;4979490;28;20501;-78
2022/03/12 05:21:00;;;;;;;12.40;8.10;;;4.40;69.10;;;;;;4979321;28;20456;-78
2022/03/12 05:23:27;;;;;;;14.97;7.67;;;4.40;68.50;;;;;;4975089;28;20541;-76
2022/03/12 05:25:54;;;;;;;15.23;8.53;;;4.40;68.70;;;;;;4975544;28;20567;-77
2022/03/12 05:28:25;;;;;;;15.20;8.10;;;4.30;68.50;;;;;;4975412;28;20504;-77
2022/03/12 05:30:53;;;;;;;12.80;7.60;;;4.30;68.00;;;;;;4975527;28;20452;-77
2022/03/12 05:33:20;;;;;;;11.23;7.10;;;4.30;68.20;;;;;;4975800;28;20461;-77
2022/03/12 05:35:54;;;;;;;9.70;7.90;;;4.30;68.50;;;;;;4975540;28;20476;-77
2022/03/12 05:38:22;;;;;;;13.10;8.93;;;4.20;69.30;;;;;;4975511;28;20440;-76
2022/03/12 05:40:50;;;;;;;10.73;7.40;;;4.30;69.10;;;;;;4975775;28;20449;-77
2022/03/12 05:43:18;;;;;;;11.77;7.40;;;4.20;68.80;;;;;;4975345;28;20932;-77
2022/03/12 05:45:47;;;;;;;11.57;7.73;;;4.20;69.10;;;;;;4975149;28;21007;-77
2022/03/12 05:48:15;;;;;;;13.30;7.80;;;4.20;68.80;;;;;;4975329;28;20492;-76
2022/03/12 05:50:44;;;;;;;13.17;7.73;;;4.20;69.00;;;;;;4975205;28;21036;-76
2022/03/12 05:53:18;;;;;;;12.03;7.50;;;4.20;69.50;;;;;;4975557;28;20459;-78
2022/03/12 05:55:46;;;;;;;11.57;7.57;;;4.20;69.10;;;;;;4978733;28;20469;-78
2022/03/12 05:58:15;;;;;;;12.00;7.47;;;4.10;68.60;;;;;;4976380;28;20459;-77
2022/03/12 06:00:42;;;;;;;13.07;7.90;;;4.10;68.80;;;;;;4977027;28;20453;-78
2022/03/12 06:03:10;;;;;;;12.70;7.10;;;4.10;69.30;;;;;;4979118;28;20448;-78
2022/03/12 06:05:41;;;;;;;14.60;7.63;;;4.10;69.50;;;;;;4978608;28;20508;-78
2022/03/12 06:08:09;;;;;;;10.30;7.37;;;4.20;70.10;;;;;;4978602;28;20488;-80
2022/03/12 06:10:46;;;;;;;10.47;7.10;;;4.10;70.10;;;;;;4978251;28;20544;-78
2022/03/12 06:13:16;;;;;;;13.60;8.40;;;4.20;69.30;;;;;;4978504;28;20444;-78
2022/03/12 06:15:48;;;;;;;18.43;8.30;;;4.10;69.50;;;;;;4978153;28;20491;-78
2022/03/12 06:18:15;;;;;;;11.70;7.50;;;4.10;69.50;;;;;;4977762;28;20532;-78
2022/03/12 06:20:43;;;;;;;15.07;8.20;;;4.10;68.60;;;;;;4976484;28;20461;-78
2022/03/12 06:23:10;;;;;;;13.03;7.90;;;4.10;69.00;;;;;;4980797;28;20520;-78
2022/03/12 06:25:38;;;;;;;13.17;8.30;;;4.10;69.90;;;;;;4983688;28;20476;-77
2022/03/12 06:28:05;;;;;;;11.03;7.20;;;4.10;70.60;;;;;;4977561;28;21066;-78
2022/03/12 06:30:32;;;;;;;14.30;8.30;;;4.10;69.70;;;;;;4975189;28;20531;-77
2022/03/12 06:33:00;;;;;;;11.67;7.77;;;4.10;70.30;;;;;;4969062;28;20565;-77
2022/03/12 06:35:28;;;;;;;14.07;7.13;;;4.10;70.00;;;;;;4963111;28;20488;-78
2022/03/12 06:37:56;;;;;;;13.77;7.90;;;4.10;69.60;;;;;;4966802;28;20949;-77
2022/03/12 06:40:28;;;;;;;16.20;9.00;;;4.10;70.30;;;;;;4976238;28;20464;-78
2022/03/12 06:42:59;;;;;;;17.57;8.10;;;4.10;70.00;;;;;;4970829;28;20480;-79
2022/03/12 06:45:26;;;;;;;11.37;8.20;;;4.10;69.80;;;;;;4961925;28;20487;-78
2022/03/12 06:47:53;;;;;;;13.90;8.23;;;4.10;69.80;;;;;;4977678;28;20516;-78
2022/03/12 06:50:23;;;;;;;12.77;7.70;;;4.10;69.90;;;;;;4977571;28;20456;-78
2022/03/12 06:52:51;;;;;;;9.93;7.50;;;4.00;70.20;;;;;;4975553;28;20452;-76
2022/03/12 06:55:21;;;;;;;12.20;8.30;;;4.00;70.10;;;;;;4974275;28;20551;-76
2022/03/12 06:57:49;;;;;;;13.33;8.17;;;4.00;71.00;;;;;;4974370;28;20453;-77
2022/03/12 07:00:21;;;;;;;12.80;7.13;;;4.10;71.10;;;;;;4973854;28;20466;-75
2022/03/12 07:02:48;;;;;;;12.17;8.50;;;4.10;71.20;;;;;;4974217;28;20456;-72
2022/03/12 07:05:14;;;;;;;13.40;8.37;;;4.10;71.00;;;;;;4974053;28;20555;-72
2022/03/12 07:07:41;;;;;;;13.17;7.87;;;4.10;71.50;;;;;;4973416;28;20500;-72
2022/03/12 07:10:09;;;;;;;15.30;8.30;;;4.20;71.40;;;;;;4973887;28;20457;-72
2022/03/12 07:12:36;;;;;;;15.43;8.53;;;4.10;70.60;;;;;;4973536;28;20539;-76
2022/03/12 07:15:05;;;;;;;15.87;8.50;;;4.10;71.00;;;;;;4974079;28;20488;-76
2022/03/12 07:17:34;;;;;;;11.87;7.87;;;4.10;70.50;;;;;;4974051;28;20548;-77
2022/03/12 07:20:01;;;;;;;13.20;7.20;;;4.10;70.30;;;;;;4974001;28;20504;-76
2022/03/12 07:22:28;;;;;;;12.80;7.30;;;4.20;70.00;;;;;;4973990;28;20810;-76
2022/03/12 07:24:54;;;;;;;14.47;8.27;;;4.20;70.20;;;;;;4974073;28;20461;-77
2022/03/12 07:27:22;;;;;;;12.10;8.30;;;4.30;70.40;;;;;;4973717;28;20496;-75
2022/03/12 07:29:51;;;;;;;11.50;8.00;;;4.30;70.30;;;;;;4973730;28;20658;-76
2022/03/12 07:32:20;;;;;;;12.80;7.57;;;4.40;70.20;;;;;;4973645;28;20547;-75
2022/03/12 07:34:49;;;;;;;17.27;8.00;;;4.50;70.30;;;;;;4973415;28;20456;-77
2022/03/12 07:37:16;;;;;;;13.97;8.90;;;4.60;69.60;;;;;;4973178;28;20539;-76
2022/03/12 07:39:43;;;;;;;19.20;8.57;;;4.60;69.80;;;;;;4973099;28;20991;-76
2022/03/12 07:42:10;;;;;;;11.03;7.23;;;4.70;70.90;;;;;;4973470;28;20452;-76
2022/03/12 07:44:36;;;;;;;13.63;8.07;;;4.80;69.20;;;;;;4973434;28;20456;-76
2022/03/12 07:47:04;;;;;;;14.23;8.30;;;4.80;69.10;;;;;;4972481;28;20472;-77
2022/03/12 07:49:30;;;;;;;9.90;7.43;;;4.90;68.90;;;;;;4973509;28;20460;-77
2022/03/12 07:51:59;;;;;;;17.53;8.10;;;4.90;68.30;;;;;;4972966;28;20540;-76
2022/03/12 07:54:26;;;;;;;10.40;7.60;;;5.00;68.70;;;;;;4973307;28;20460;-76
2022/03/12 07:56:53;;;;;;;11.80;8.60;;;5.00;68.90;;;;;;4973121;28;20499;-75
2022/03/12 07:59:27;;;;;;;14.30;8.20;;;5.10;68.30;;;;;;4973093;28;20895;-76
2022/03/12 08:01:55;;;;;;;44.73;8.77;;;5.30;68.90;;;;;;4973494;28;20451;-76
2022/03/12 08:04:21;;;;;;;13.97;8.10;;;5.40;68.40;;;;;;4973302;28;20465;-76
2022/03/12 08:06:50;;;;;;;13.10;7.83;;;5.50;68.50;;;;;;4973224;28;20484;-78
2022/03/12 08:09:18;;;;;;;15.80;9.03;;;5.60;67.50;;;;;;4972885;28;20855;-75
2022/03/12 08:11:47;;;;;;;10.80;7.47;;;5.70;68.40;;;;;;4973055;28;20487;-76
2022/03/12 08:14:16;;;;;;;12.40;7.60;;;5.80;68.00;;;;;;4953882;28;20481;-70
2022/03/12 08:16:44;;;;;;;11.40;8.20;;;5.90;68.80;;;;;;4953049;28;20508;-69
2022/03/12 08:19:11;;;;;;;15.77;8.73;;;6.10;67.90;;;;;;4953461;28;20453;-70
2022/03/12 08:21:39;;;;;;;16.57;8.93;;;6.20;68.50;;;;;;4953859;28;20497;-76
2022/03/12 08:24:15;;;;;;;13.23;9.17;;;6.30;67.90;;;;;;4953848;28;20880;-78
2022/03/12 08:26:44;;;;;;;12.73;7.80;;;6.40;67.80;;;;;;4953233;28;20493;-75
2022/03/12 08:29:11;;;;;;;13.70;7.93;;;6.60;68.30;;;;;;4953709;28;20497;-76
2022/03/12 08:31:39;;;;;;;11.77;7.53;;;6.90;68.20;;;;;;4953329;28;20480;-76
2022/03/12 08:34:06;;;;;;;20.03;8.03;;;7.00;68.30;;;;;;4953677;28;20473;-76
2022/03/12 08:36:33;;;;;;;14.50;8.27;;;7.10;67.90;;;;;;4952598;28;20568;-76
2022/03/12 08:39:00;;;;;;;13.33;8.40;;;7.30;67.10;;;;;;4953433;28;20455;-76
2022/03/12 08:41:27;;;;;;;13.00;8.20;;;7.40;66.50;;;;;;4953474;28;20464;-76
2022/03/12 08:43:55;;;;;;;12.57;8.20;;;7.60;66.70;;;;;;4955110;28;20839;-75
2022/03/12 08:46:22;;;;;;;13.23;8.47;;;7.90;66.40;;;;;;4972187;28;20510;-75
2022/03/12 08:48:49;;;;;;;14.53;9.53;;;8.00;66.30;;;;;;4966066;28;20617;-75
2022/03/12 08:51:16;;;;;;;16.63;9.10;;;8.10;66.00;;;;;;4952134;28;20990;-76
2022/03/12 08:53:43;;;;;;;13.70;8.70;;;8.40;67.20;;;;;;4952211;28;20449;-76
2022/03/12 08:56:10;;;;;;;13.50;9.10;;;8.60;67.10;;;;;;4952569;28;20560;-76
2022/03/12 08:58:37;;;;;;;12.80;8.97;;;8.90;65.80;;;;;;4953792;28;20467;-71
2022/03/12 09:01:08;;;;;;;14.60;9.03;;;9.20;66.00;;;;;;4955967;28;20457;-76
2022/03/12 09:03:36;;;;;;;15.20;8.90;;;9.50;65.40;;;;;;4956700;28;20437;-74
2022/03/12 09:06:03;;;;;;;15.23;9.83;;;9.60;64.80;;;;;;4955665;28;20473;-75
2022/03/12 09:08:31;;;;;;;15.20;10.10;;;9.70;64.90;;;;;;4955720;28;20497;-75
2022/03/12 09:10:59;;;;;;;18.07;10.67;;;9.90;64.10;;;;;;4961836;28;20496;-75
2022/03/12 09:13:26;;;;;;;15.23;9.83;;;10.00;62.30;;;;;;4972080;28;20452;-75
2022/03/12 09:15:53;;;;;;;16.13;10.05;;;10.40;62.00;;;;;;4974680;28;20546;-75
2022/03/12 09:18:21;;;;;;;17.33;10.23;;;10.50;62.70;;;;;;4975221;28;20213;-76
2022/03/12 09:20:49;;;;;;;18.60;11.40;;;10.50;62.10;;;;;;4971080;28;20441;-76
2022/03/12 09:23:18;;;;;;;16.93;11.43;;;10.90;60.00;;;;;;4956204;28;20272;-76
2022/03/12 09:25:46;;;;;;;15.27;11.57;;;11.00;61.30;;;;;;4954979;28;20530;-76
2022/03/12 09:28:13;;;;;;;16.30;11.80;;;11.50;60.70;;;;;;4956251;28;20238;-76
2022/03/12 09:30:40;;;;;;;20.17;13.83;;;11.50;60.10;;;;;;4956241;28;20938;-76
2022/03/12 09:33:08;;;;;;;19.30;11.53;;;11.80;60.50;;;;;;4955907;28;20818;-76
2022/03/12 09:35:37;;;;;;;19.50;12.43;;;11.80;59.80;;;;;;4956157;28;20556;-76
2022/03/12 09:38:04;;;;;;;16.03;11.77;;;11.80;59.80;;;;;;4956010;28;20508;-76
2022/03/12 09:40:31;;;;;;;21.13;11.63;;;11.80;58.40;;;;;;4956530;28;20930;-76
2022/03/12 09:42:59;;;;;;;15.20;11.27;;;12.00;59.80;;;;;;4957002;28;20458;-76
2022/03/12 09:45:26;;;;;;;18.70;11.40;;;12.00;60.00;;;;;;4956557;28;20480;-76
2022/03/12 09:47:53;;;;;;;18.30;10.67;;;12.00;59.50;;;;;;4956149;28;20214;-76
2022/03/12 09:50:20;;;;;;;19.57;11.87;;;12.10;59.40;;;;;;4956267;28;20454;-76
2022/03/12 09:52:49;;;;;;;16.80;11.00;;;12.10;59.10;;;;;;4956182;28;20461;-77
2022/03/12 09:55:18;;;;;;;16.23;11.40;;;12.20;59.40;;;;;;4956218;28;20482;-76
2022/03/12 09:57:47;;;;;;;17.17;11.47;;;12.40;60.40;;;;;;4956136;28;20512;-76
2022/03/12 10:00:15;;;;;;;18.23;11.07;;;12.60;60.70;;;;;;4955936;28;20460;-76
2022/03/12 10:02:42;;;;;;;16.47;11.90;;;12.90;60.60;;;;;;4955797;28;20457;-76
2022/03/12 10:05:12;;;;;;;19.53;12.27;;;13.10;59.90;;;;;;4955952;28;20556;-75
2022/03/12 10:07:39;;;;;;;19.47;11.40;;;13.30;59.60;;;;;;4955290;28;20565;-68
2022/03/12 10:10:12;;;;;;;18.30;11.50;;;13.50;59.30;;;;;;4954942;28;20539;-70
2022/03/12 10:12:39;;;;;;;17.00;11.47;;;13.60;58.90;;;;;;4955761;28;20575;-70
2022/03/12 10:15:07;;;;;;;19.43;12.60;;;13.70;59.10;;;;;;4955425;28;20481;-70
2022/03/12 10:17:33;;;;;;;19.27;12.20;;;13.70;59.30;;;;;;4955289;28;20982;-71
2022/03/12 10:20:01;;;;;;;15.90;11.50;;;13.80;59.70;;;;;;4970173;28;20457;-70
2022/03/12 10:22:28;;;;;;;16.30;11.60;;;13.90;59.70;;;;;;4973611;28;20817;-67
2022/03/12 10:24:55;;;;;;;16.20;11.50;;;13.90;60.60;;;;;;4974540;28;20511;-70
2022/03/12 10:27:23;;;;;;;13.77;10.90;;;14.40;61.00;;;;;;4973566;28;20452;-66
2022/03/12 10:29:50;;;;;;;17.20;10.40;;;14.80;60.80;;;;;;4974924;28;20484;-75
2022/03/12 10:32:23;;;;;;;17.80;11.57;;;15.30;61.70;;;;;;4974681;28;20488;-76
2022/03/12 10:34:52;;;;;;;17.80;10.67;;;15.40;60.50;;;;;;4974413;28;20551;-76
2022/03/12 10:37:20;;;;;;;18.83;10.83;;;15.60;60.50;;;;;;4974574;28;20495;-75
2022/03/12 10:39:46;;;;;;;18.87;11.27;;;15.90;60.40;;;;;;4975130;28;20455;-75
2022/03/12 10:42:14;;;;;;;17.03;11.03;;;16.40;60.30;;;;;;4975497;28;20452;-75
2022/03/12 10:44:43;;;;;;;13.20;10.10;;;16.60;59.50;;;;;;4975404;28;20452;-71
2022/03/12 10:47:18;;;;;;;16.03;10.37;;;16.90;60.40;;;;;;4975907;28;20957;-75
2022/03/12 10:49:56;;;;;;;12.97;9.40;;;17.30;59.10;;;;;;4975087;28;21066;-77
2022/03/12 10:52:23;;;;;;;12.77;10.30;;;17.60;60.20;;;;;;4975564;28;20448;-75
2022/03/12 10:54:50;;;;;;;17.67;11.07;;;18.00;59.60;;;;;;4974924;28;20834;-76
2022/03/12 10:57:19;;;;;;;14.13;9.57;;;18.20;58.50;;;;;;4974497;28;20466;-75
2022/03/12 10:59:47;;;;;;;15.80;10.37;;;18.40;59.30;;;;;;4974465;28;21335;-77
2022/03/12 11:02:15;;;;;;;13.90;10.40;;;18.30;58.70;;;;;;4974695;28;20949;-75
2022/03/12 11:04:42;;;;;;;17.53;10.43;;;18.20;59.20;;;;;;4974815;28;20889;-75
2022/03/12 11:07:30;;;;;;;16.47;10.37;;;18.00;59.10;;;;;;4973994;28;20445;-74
2022/03/12 11:09:58;;;;;;;14.53;9.57;;;17.80;60.60;;;;;;4969120;28;20562;-75
2022/03/12 11:12:30;;;;;;;12.83;9.23;;;17.80;61.00;;;;;;4974198;28;21027;-75
2022/03/12 11:15:03;;;;;;;12.03;8.73;;;17.70;60.90;;;;;;4974024;28;20493;-77
2022/03/12 11:17:30;;;;;;;12.37;8.60;;;17.60;61.50;;;;;;4973043;28;20464;-76
2022/03/12 11:19:58;;;;;;;12.13;8.47;;;17.90;62.10;;;;;;4973224;28;20456;-75
2022/03/12 11:22:25;;;;;;;11.40;8.87;;;18.40;61.90;;;;;;4973500;28;20492;-75
2022/03/12 11:24:54;;;;;;;12.57;9.87;;;18.30;61.70;;;;;;4973497;28;20472;-74
2022/03/12 11:27:32;;;;;;;12.70;8.73;;;18.00;61.50;;;;;;4973577;28;20472;-74
2022/03/12 11:30:04;;;;;;;12.00;9.00;;;18.00;61.40;;;;;;4973378;28;20534;-74
2022/03/12 11:32:36;;;;;;;12.63;8.93;;;18.20;62.30;;;;;;4973666;28;20456;-75
2022/03/12 11:35:07;;;;;;;13.40;8.90;;;18.50;62.50;;;;;;4973443;28;20488;-75
2022/03/12 11:37:36;;;;;;;10.40;8.30;;;18.60;62.20;;;;;;4973352;28;20969;-74
2022/03/12 11:40:05;;;;;;;11.03;8.00;;;18.60;61.80;;;;;;4973544;28;20456;-74
2022/03/12 11:42:34;;;;;;;12.87;8.23;;;18.50;62.40;;;;;;4973394;28;20488;-74
2022/03/12 11:45:04;;;;;;;11.97;8.50;;;18.30;64.10;;;;;;4973350;28;20480;-76
2022/03/12 11:47:33;;;;;;;11.00;8.37;;;18.20;64.90;;;;;;4972975;28;20830;-74
2022/03/12 11:50:02;;;;;;;10.90;7.78;;;18.20;64.40;;;;;;4972589;28;20492;-74
2022/03/12 11:52:30;;;;;;;11.53;8.70;;;18.10;64.00;;;;;;4972169;28;20217;-74
2022/03/12 11:54:58;;;;;;;18.40;8.50;;;18.10;64.50;;;;;;4971994;28;20476;-74
2022/03/12 11:57:27;;;;;;;11.87;8.43;;;18.30;64.80;;;;;;4971880;28;20448;-75
2022/03/12 11:59:55;;;;;;;15.70;9.67;;;18.40;62.00;;;;;;4972103;28;20448;-74
2022/03/12 12:02:29;;;;;;;11.27;9.37;;;19.00;62.30;;;;;;4971884;28;20488;-74
2022/03/12 12:04:59;;;;;;;11.10;8.70;;;19.60;62.30;;;;;;4972075;28;20860;-74
2022/03/12 12:07:29;;;;;;;14.43;8.70;;;20.20;61.60;;;;;;4971748;28;20492;-74
2022/03/12 12:09:56;;;;;;;9.30;7.60;;;20.30;60.00;;;;;;4971871;28;21253;-74
2022/03/12 12:12:27;;;;;;;12.70;8.90;;;20.40;61.00;;;;;;4972044;28;20471;-74
2022/03/12 12:14:56;;;;;;;10.80;7.90;;;20.30;61.30;;;;;;4972310;28;20484;-73
2022/03/12 12:17:23;;;;;;;10.30;7.60;;;20.30;62.00;;;;;;4972854;28;20556;-71
2022/03/12 12:19:51;;;;;;;12.93;6.90;;;20.20;61.60;;;;;;4973193;28;20487;-70
2022/03/12 12:22:19;;;;;;;10.53;7.60;;;20.20;61.90;;;;;;4973026;28;20457;-71
2022/03/12 12:24:46;;;;;;;9.37;7.63;;;20.20;61.40;;;;;;4972953;28;20459;-65
2022/03/12 12:27:14;;;;;;;8.17;7.20;;;20.30;62.40;;;;;;4972543;28;20536;-69
2022/03/12 12:29:46;;;;;;;8.70;6.50;;;20.30;63.10;;;;;;4972785;28;20496;-69
2022/03/12 12:32:15;;;;;;;8.63;6.90;;;20.00;63.20;;;;;;4973006;28;20540;-69
2022/03/12 12:35:02;;;;;;;9.90;7.27;;;19.90;63.20;;;;;;4976063;28;20479;-69
2022/03/12 12:37:49;;;;;;;12.50;6.70;;;19.90;63.10;;;;;;4976336;28;20543;-69
2022/03/12 12:40:22;;;;;;;8.10;6.17;;;20.00;63.40;;;;;;4976812;28;20448;-70
2022/03/12 12:42:51;;;;;;;8.60;5.97;;;19.90;63.10;;;;;;4976744;28;20495;-70
2022/03/12 12:45:20;;;;;;;9.00;6.17;;;19.80;63.70;;;;;;4976720;28;20523;-70
2022/03/12 12:47:47;;;;;;;9.80;7.30;;;19.90;64.00;;;;;;4976390;28;20471;-70
2022/03/12 12:50:24;;;;;;;9.80;6.90;;;19.90;62.90;;;;;;4976578;28;20502;-70
2022/03/12 12:53:13;;;;;;;10.60;6.80;;;20.00;62.90;;;;;;4976558;28;20456;-70
2022/03/12 12:55:40;;;;;;;10.20;7.00;;;20.00;64.00;;;;;;4976606;28;20530;-70
2022/03/12 12:58:08;;;;;;;11.43;7.47;;;20.10;63.10;;;;;;4976294;28;20462;-70
2022/03/12 13:00:38;;;;;;;10.53;6.53;;;20.10;63.30;;;;;;4976245;28;20941;-70
2022/03/12 13:03:14;;;;;;;8.60;6.53;;;20.20;63.40;;;;;;4976583;28;20467;-70
2022/03/12 13:05:58;;;;;;;9.10;6.93;;;20.20;62.20;;;;;;4976228;28;20563;-70
2022/03/12 13:08:42;;;;;;;8.57;6.97;;;20.20;62.60;;;;;;4976159;28;20484;-70
2022/03/12 13:11:28;;;;;;;9.20;6.50;;;20.10;63.30;;;;;;4976071;28;20932;-71
2022/03/12 13:13:57;;;;;;;9.23;6.90;;;20.00;62.70;;;;;;4976213;28;20520;-69
2022/03/12 13:16:24;;;;;;;9.57;7.30;;;20.00;63.40;;;;;;4975829;28;20484;-70
2022/03/12 13:18:51;;;;;;;8.60;6.53;;;20.10;62.50;;;;;;4975999;28;20460;-70
2022/03/12 13:21:34;;;;;;;9.73;6.87;;;20.10;63.20;;;;;;4975790;28;21116;-69
2022/03/12 13:24:01;;;;;;;7.50;6.17;;;20.20;63.80;;;;;;4976303;28;20459;-70
2022/03/12 13:26:28;;;;;;;13.90;6.43;;;20.30;62.80;;;;;;4975645;28;20480;-70
2022/03/12 13:28:58;;;;;;;9.25;7.22;;;20.40;63.00;;;;;;4974722;28;20501;-71
2022/03/12 13:31:30;;;;;;;10.63;7.10;;;20.40;61.80;;;;;;4965214;28;20210;-70
2022/03/12 13:34:00;;;;;;;7.97;6.53;;;20.40;62.00;;;;;;4975502;28;20480;-70
2022/03/12 13:36:29;;;;;;;9.20;7.20;;;20.50;62.30;;;;;;4975004;28;20842;-70
2022/03/12 13:38:58;;;;;;;10.13;7.03;;;20.60;61.70;;;;;;4975594;28;20459;-70
2022/03/12 13:41:26;;;;;;;7.97;6.80;;;20.60;62.50;;;;;;4964818;28;20445;-70
2022/03/12 13:43:55;;;;;;;14.80;7.50;;;20.60;61.50;;;;;;4975294;28;20537;-70
2022/03/12 13:46:24;;;;;;;9.30;6.80;;;20.60;61.50;;;;;;4973938;28;20991;-70
2022/03/12 13:49:04;;;;;;;9.57;6.30;;;20.50;61.00;;;;;;4968129;28;20541;-70
2022/03/12 13:51:33;;;;;;;8.60;7.03;;;20.40;61.10;;;;;;4956115;28;20453;-70
2022/03/12 13:54:03;;;;;;;11.00;6.50;;;20.30;60.70;;;;;;4955868;28;20465;-70
2022/03/12 13:56:32;;;;;;;11.77;7.90;;;20.40;62.20;;;;;;4956655;28;21076;-70
2022/03/12 13:59:04;;;;;;;8.57;6.70;;;20.40;61.40;;;;;;4959096;28;20525;-70
2022/03/12 14:01:37;;;;;;;7.57;6.20;;;20.40;61.30;;;;;;4955929;28;20464;-70
2022/03/12 14:04:05;;;;;;;10.20;6.60;;;20.50;61.50;;;;;;4956340;28;20460;-70
2022/03/12 14:06:34;;;;;;;10.37;7.57;;;20.60;61.20;;;;;;4955433;28;20560;-70
2022/03/12 14:09:04;;;;;;;11.50;7.80;;;20.70;60.80;;;;;;4955794;28;20488;-70
2022/03/12 14:11:38;;;;;;;9.80;8.20;;;20.70;60.90;;;;;;4956228;28;21000;-74
2022/03/12 14:14:10;;;;;;;10.50;7.10;;;20.70;61.20;;;;;;4969384;28;20519;-71
2022/03/12 14:16:40;;;;;;;11.10;8.00;;;20.80;60.20;;;;;;4961853;28;20488;-71
2022/03/12 14:19:08;;;;;;;9.37;7.87;;;20.70;60.70;;;;;;4955523;28;20544;-69
2022/03/12 14:21:37;;;;;;;12.50;8.67;;;20.70;61.60;;;;;;4955442;28;20464;-68
2022/03/12 14:24:17;;;;;;;12.13;7.60;;;20.60;60.50;;;;;;4965438;28;20457;-68
2022/03/12 14:26:55;;;;;;;9.23;7.67;;;20.50;60.60;;;;;;4974436;28;20559;-68
2022/03/12 14:29:25;;;;;;;10.33;7.73;;;20.50;60.30;;;;;;4974601;28;20453;-68
2022/03/12 14:31:53;;;;;;;10.43;7.37;;;20.50;60.20;;;;;;4974618;28;20906;-68
2022/03/12 14:34:21;;;;;;;10.23;8.03;;;20.50;61.00;;;;;;4974339;28;20463;-68
2022/03/12 14:36:49;;;;;;;11.33;7.73;;;20.50;60.30;;;;;;4974103;28;20468;-68
2022/03/12 14:39:18;;;;;;;8.70;7.10;;;20.50;60.20;;;;;;4974501;28;20544;-70
2022/03/12 14:41:47;;;;;;;11.20;8.83;;;20.50;60.30;;;;;;4974593;28;20492;-68
2022/03/12 14:44:15;;;;;;;10.27;8.40;;;20.50;60.00;;;;;;4962385;28;20465;-69
2022/03/12 14:46:46;;;;;;;13.47;8.57;;;20.50;60.00;;;;;;4954608;28;20473;-68
2022/03/12 14:49:25;;;;;;;11.53;8.60;;;20.40;59.70;;;;;;4953810;28;20449;-68
2022/03/12 14:51:54;;;;;;;13.50;8.17;;;20.40;59.60;;;;;;4953630;28;21071;-68
2022/03/12 14:54:31;;;;;;;10.40;8.30;;;20.40;59.90;;;;;;4953513;28;20489;-68
2022/03/12 14:57:01;;;;;;;12.23;9.13;;;20.30;59.60;;;;;;4951507;28;20852;-69
2022/03/12 14:59:30;;;;;;;11.33;9.10;;;20.30;59.60;;;;;;4953406;28;20477;-69
2022/03/12 15:02:14;;;;;;;13.17;8.83;;;20.40;59.10;;;;;;4953573;28;20457;-69
2022/03/12 15:04:46;;;;;;;12.03;8.63;;;20.30;59.30;;;;;;4954290;28;20453;-69
2022/03/12 15:07:19;;;;;;;11.60;9.00;;;20.30;60.10;;;;;;4954454;28;20548;-68
2022/03/12 15:09:58;;;;;;;14.50;9.17;;;20.30;59.50;;;;;;4954711;28;20609;-68
2022/03/12 15:12:34;;;;;;;17.60;9.77;;;20.40;59.60;;;;;;4954753;28;20445;-69
2022/03/12 15:15:15;;;;;;;15.23;8.33;;;20.50;60.70;;;;;;4954320;28;20491;-69
2022/03/12 15:17:43;;;;;;;13.43;8.83;;;20.60;59.70;;;;;;4954006;28;20556;-69
2022/03/12 15:20:14;;;;;;;13.90;9.00;;;20.70;59.10;;;;;;4952956;28;20491;-69
2022/03/12 15:22:42;;;;;;;21.10;9.90;;;20.70;59.50;;;;;;4954561;28;20540;-69
2022/03/12 15:25:13;;;;;;;13.37;10.13;;;20.90;59.10;;;;;;4953594;28;20916;-69
2022/03/12 15:27:40;;;;;;;15.73;10.50;;;20.90;58.60;;;;;;4952901;28;20829;-68
2022/03/12 15:30:10;;;;;;;17.80;11.10;;;21.10;58.60;;;;;;4954243;28;20492;-69
2022/03/12 15:32:37;;;;;;;13.33;11.10;;;21.20;58.80;;;;;;4952799;28;20484;-64
2022/03/12 15:35:07;;;;;;;14.17;10.60;;;21.20;58.10;;;;;;4953779;28;20556;-69
2022/03/12 15:37:39;;;;;;;12.83;10.40;;;21.20;58.40;;;;;;4953176;28;20450;-69
2022/03/12 15:40:10;;;;;;;14.63;10.27;;;21.40;58.40;;;;;;4953534;28;20457;-74
2022/03/12 15:42:42;;;;;;;15.90;9.80;;;21.30;58.20;;;;;;4953328;28;20950;-75
2022/03/12 15:45:11;;;;;;;13.70;10.33;;;21.30;58.50;;;;;;4952753;28;20848;-74
2022/03/12 15:47:39;;;;;;;15.27;9.20;;;21.30;58.10;;;;;;4953716;28;20464;-74
2022/03/12 15:50:08;;;;;;;15.00;9.30;;;21.10;58.80;;;;;;4954032;28;21028;-74
2022/03/12 15:52:35;;;;;;;11.50;9.27;;;21.10;58.10;;;;;;4953966;28;20541;-75
2022/03/12 15:55:02;;;;;;;16.33;9.57;;;21.00;58.00;;;;;;4953710;28;20480;-74
2022/03/12 15:57:29;;;;;;;14.97;10.10;;;21.00;57.90;;;;;;4953653;28;20464;-74
2022/03/12 15:59:57;;;;;;;15.53;9.83;;;21.00;58.30;;;;;;4953866;28;20449;-74
2022/03/12 16:02:24;;;;;;;11.50;9.77;;;20.90;58.00;;;;;;4953874;28;20456;-74
2022/03/12 16:04:51;;;;;;;19.33;10.40;;;20.80;58.50;;;;;;4953880;28;20532;-74
2022/03/12 16:07:18;;;;;;;13.13;10.00;;;20.80;58.50;;;;;;4953287;28;20459;-74
2022/03/12 16:09:45;;;;;;;21.67;11.10;;;20.90;57.70;;;;;;4953343;28;20962;-74
2022/03/12 16:12:12;;;;;;;19.13;9.60;;;20.90;57.90;;;;;;4953086;28;20883;-74
2022/03/12 16:14:42;;;;;;;16.17;8.83;;;21.00;57.90;;;;;;4953829;28;20544;-75
2022/03/12 16:17:11;;;;;;;18.10;10.07;;;20.90;58.30;;;;;;4953426;28;20465;-74
2022/03/12 16:19:38;;;;;;;13.10;8.43;;;20.80;58.00;;;;;;4952938;28;20775;-74
2022/03/12 16:22:06;;;;;;;14.13;9.20;;;20.60;57.90;;;;;;4952805;28;20557;-75
2022/03/12 16:24:36;;;;;;;17.60;9.20;;;20.40;58.30;;;;;;4952720;28;20462;-74
2022/03/12 16:27:09;;;;;;;13.33;7.70;;;20.20;58.90;;;;;;4953473;28;20553;-74
2022/03/12 16:29:36;;;;;;;15.93;10.33;;;19.90;58.90;;;;;;4953954;28;20548;-74
2022/03/12 16:32:03;;;;;;;21.60;9.37;;;19.70;59.20;;;;;;4953579;28;20532;-74
2022/03/12 16:34:31;;;;;;;12.50;8.80;;;19.50;59.20;;;;;;4953456;28;20557;-74
2022/03/12 16:37:00;;;;;;;14.60;9.77;;;19.00;59.30;;;;;;4953753;28;20464;-73
2022/03/12 16:39:27;;;;;;;22.13;10.10;;;18.70;59.40;;;;;;4953273;28;20516;-74
2022/03/12 16:41:54;;;;;;;11.97;9.30;;;18.40;59.40;;;;;;4952273;28;21038;-74
2022/03/12 16:44:22;;;;;;;20.17;9.57;;;18.10;59.80;;;;;;4952244;28;20461;-74
2022/03/12 16:46:49;;;;;;;12.03;8.80;;;17.80;59.40;;;;;;4952828;28;20564;-74
2022/03/12 16:49:16;;;;;;;16.10;9.60;;;17.50;59.40;;;;;;4952517;28;20485;-75
2022/03/12 16:51:45;;;;;;;20.70;9.60;;;17.20;59.90;;;;;;4962202;28;20492;-69
2022/03/12 16:54:12;;;;;;;18.90;10.57;;;16.90;60.30;;;;;;4971996;28;20455;-76
2022/03/12 16:56:39;;;;;;;10.63;9.30;;;16.80;60.70;;;;;;4971887;28;20981;-74
2022/03/12 16:59:07;;;;;;;12.10;9.13;;;16.60;60.60;;;;;;4972852;28;20931;-75
2022/03/12 17:01:34;;;;;;;13.73;9.70;;;16.40;60.90;;;;;;4972935;28;20456;-74
2022/03/12 17:04:02;;;;;;;13.43;9.10;;;16.30;61.60;;;;;;4971307;28;20581;-74
2022/03/12 17:06:28;;;;;;;20.03;10.83;;;16.00;61.00;;;;;;4955558;28;20496;-74
2022/03/12 17:08:57;;;;;;;17.87;9.33;;;15.80;61.30;;;;;;4953461;28;20541;-75
2022/03/12 17:11:25;;;;;;;12.40;9.37;;;15.70;61.50;;;;;;4953439;28;20496;-75
2022/03/12 17:13:52;;;;;;;11.87;8.63;;;15.60;61.60;;;;;;4953196;28;20485;-75
2022/03/12 17:16:19;;;;;;;12.80;9.30;;;15.40;61.60;;;;;;4976257;23;20502;-74
2022/03/12 17:18:46;;;;;;;17.67;9.63;;;15.30;61.60;;;;;;4953334;28;20993;-74
2022/03/12 17:21:15;;;;;;;15.83;8.97;;;15.10;61.50;;;;;;4957047;28;20535;-73
2022/03/12 17:23:44;;;;;;;13.40;9.60;;;15.00;61.80;;;;;;4957288;28;20465;-74
2022/03/12 17:26:14;;;;;;;13.30;9.83;;;14.80;61.70;;;;;;4956084;28;20517;-73
2022/03/12 17:28:44;;;;;;;15.90;10.10;;;14.70;62.40;;;;;;4956759;28;20449;-74
2022/03/12 17:31:12;;;;;;;12.83;9.27;;;14.60;62.00;;;;;;4960674;28;20663;-74
2022/03/12 17:33:41;;;;;;;12.77;8.40;;;14.50;62.60;;;;;;4958194;28;20461;-73
2022/03/12 17:36:09;;;;;;;12.83;9.00;;;14.40;62.30;;;;;;4959358;28;20533;-74
2022/03/12 17:38:37;;;;;;;14.67;9.50;;;14.30;62.50;;;;;;4958651;28;20473;-74
2022/03/12 17:41:07;;;;;;;13.50;8.40;;;14.30;62.60;;;;;;4959190;28;20484;-73
2022/03/12 17:43:35;;;;;;;13.60;9.77;;;14.20;62.50;;;;;;4957545;28;21029;-74
2022/03/12 17:46:05;;;;;;;16.50;8.90;;;14.20;62.50;;;;;;4958257;28;20460;-74
2022/03/12 17:48:32;;;;;;;13.83;9.73;;;14.10;62.60;;;;;;4957324;28;20464;-74